createdAt,value
2022-07-26T00:00:26.646Z,100553.28
2022-07-26T00:02:53.385Z,100569.72
2022-07-26T00:05:20.178Z,100577.69
2022-07-26T00:07:46.966Z,100573.41
2022-07-26T00:10:14.728Z,100565.59
2022-07-26T00:12:41.566Z,100565.75
2022-07-26T00:15:10.353Z,100570.72
2022-07-26T00:17:37.008Z,100572.72
2022-07-26T00:20:04.738Z,100570.91
2022-07-26T00:22:34.493Z,100575.72
2022-07-26T00:25:04.133Z,100580.69
2022-07-26T00:27:31.020Z,100584.00
2022-07-26T00:29:57.687Z,100588.34
2022-07-26T00:32:24.504Z,100589.50
2022-07-26T00:34:52.204Z,100592.16
2022-07-26T00:37:20.660Z,100581.50
2022-07-26T00:39:47.838Z,100593.47
2022-07-26T00:42:14.590Z,100587.31
2022-07-26T00:44:42.985Z,100593.78
2022-07-26T00:47:10.189Z,100585.50
2022-07-26T00:49:37.165Z,100586.50
2022-07-26T00:52:05.866Z,100586.50
2022-07-26T00:54:32.587Z,100580.84
2022-07-26T00:57:00.513Z,100577.19
2022-07-26T00:59:27.253Z,100603.25
2022-07-26T01:01:54.545Z,100603.09
2022-07-26T01:04:21.488Z,100595.44
2022-07-26T01:06:48.998Z,100582.84
2022-07-26T01:09:17.183Z,100599.28
2022-07-26T01:11:43.872Z,100606.72
2022-07-26T01:14:10.933Z,100608.53
2022-07-26T01:16:38.115Z,100604.06
2022-07-26T01:19:04.845Z,100624.13
2022-07-26T01:21:33.036Z,100624.13
2022-07-26T01:23:59.770Z,100629.28
2022-07-26T01:26:26.435Z,100626.09
2022-07-26T01:28:53.167Z,100618.47
2022-07-26T01:31:20.107Z,100620.81
2022-07-26T01:33:46.881Z,100617.94
2022-07-26T01:36:13.598Z,100621.09
2022-07-26T01:38:41.261Z,100620.91
2022-07-26T01:41:08.215Z,100615.09
2022-07-26T01:43:35.317Z,100628.97
2022-07-26T01:46:02.813Z,100628.81
2022-07-26T01:48:30.384Z,100644.53
2022-07-26T01:50:57.860Z,100644.53
2022-07-26T01:53:24.651Z,100637.88
2022-07-26T01:55:51.379Z,100645.78
2022-07-26T01:58:18.304Z,100637.31
2022-07-26T02:00:45.068Z,100649.56
2022-07-26T02:03:11.847Z,100654.03
2022-07-26T02:05:38.557Z,100650.56
2022-07-26T02:08:05.370Z,100648.06
2022-07-26T02:10:50.773Z,100646.22
2022-07-26T02:13:17.971Z,100632.94
2022-07-26T02:15:44.771Z,100641.56
2022-07-26T02:18:11.500Z,100642.38
2022-07-26T02:20:38.179Z,100640.19
2022-07-26T02:23:04.925Z,100628.09
2022-07-26T02:25:32.029Z,100624.78
2022-07-26T02:27:58.869Z,100631.53
2022-07-26T02:30:25.756Z,100640.09
2022-07-26T02:32:52.394Z,100640.88
2022-07-26T02:35:19.244Z,100642.16
2022-07-26T02:37:45.881Z,100645.31
2022-07-26T02:40:17.032Z,100636.53
2022-07-26T02:42:45.801Z,100630.38
2022-07-26T02:45:12.453Z,100633.66
2022-07-26T02:47:50.104Z,100626.81
2022-07-26T02:50:18.616Z,100626.97
2022-07-26T02:52:48.103Z,100623.66
2022-07-26T02:55:16.125Z,100630.25
2022-07-26T02:57:46.709Z,100629.41
2022-07-26T03:00:16.181Z,100622.03
2022-07-26T03:02:43.188Z,100630.81
2022-07-26T03:05:10.483Z,100633.66
2022-07-26T03:07:37.422Z,100629.63
2022-07-26T03:10:04.845Z,100629.09
2022-07-26T03:12:31.619Z,100628.13
2022-07-26T03:14:58.359Z,100628.28
2022-07-26T03:17:25.385Z,100630.25
2022-07-26T03:19:52.107Z,100628.03
2022-07-26T03:22:18.912Z,100632.97
2022-07-26T03:24:45.533Z,100630.31
2022-07-26T03:27:12.403Z,100633.97
2022-07-26T03:29:39.046Z,100633.44
2022-07-26T03:32:06.080Z,100645.38
2022-07-26T03:34:33.078Z,100635.75
2022-07-26T03:36:59.723Z,100635.22
2022-07-26T03:39:26.370Z,100632.91
2022-07-26T03:41:53.036Z,100634.09
2022-07-26T03:44:19.700Z,100632.13
2022-07-26T03:46:46.467Z,100640.22
2022-07-26T03:49:16.620Z,100637.59
2022-07-26T03:51:43.752Z,100640.91
2022-07-26T03:54:10.841Z,100642.59
2022-07-26T03:56:37.768Z,100637.28
2022-07-26T03:59:06.960Z,100640.75
2022-07-26T04:01:35.054Z,100644.94
2022-07-26T04:04:02.616Z,100645.75
2022-07-26T04:06:29.259Z,100644.22
2022-07-26T04:08:56.864Z,100640.22
2022-07-26T04:11:27.785Z,100633.09
2022-07-26T04:13:56.174Z,100637.97
2022-07-26T04:16:23.227Z,100638.63
2022-07-26T04:18:50.058Z,100636.81
2022-07-26T04:21:17.079Z,100644.75
2022-07-26T04:23:46.533Z,100647.13
2022-07-26T04:26:17.493Z,100643.63
2022-07-26T04:28:44.154Z,100642.50
2022-07-26T04:31:10.879Z,100643.19
2022-07-26T04:33:37.653Z,100651.06
2022-07-26T04:36:04.616Z,100649.38
2022-07-26T04:38:31.671Z,100649.16
2022-07-26T04:40:58.466Z,100657.03
2022-07-26T04:43:25.627Z,100648.50
2022-07-26T04:45:52.677Z,100649.06
2022-07-26T04:48:19.456Z,100653.25
2022-07-26T04:50:46.313Z,100657.66
2022-07-26T04:53:13.600Z,100660.31
2022-07-26T04:55:41.271Z,100661.88
2022-07-26T04:58:08.757Z,100665.34
2022-07-26T05:00:51.354Z,100656.28
2022-07-26T05:03:25.041Z,100661.47
2022-07-26T05:05:52.092Z,100663.16
2022-07-26T05:08:18.714Z,100662.84
2022-07-26T05:10:45.577Z,100664.13
2022-07-26T05:13:12.246Z,100667.78
2022-07-26T05:15:38.984Z,100667.41
2022-07-26T05:18:10.573Z,100662.00
2022-07-26T05:20:40.157Z,100671.66
2022-07-26T05:23:06.826Z,100679.81
2022-07-26T05:25:33.768Z,100678.06
2022-07-26T05:28:01.671Z,100682.69
2022-07-26T05:30:28.567Z,100690.38
2022-07-26T05:32:55.535Z,100679.31
2022-07-26T05:35:22.312Z,100687.22
2022-07-26T05:37:49.066Z,100690.22
2022-07-26T05:40:15.813Z,100694.28
2022-07-26T05:42:42.716Z,100689.25
2022-07-26T05:45:09.971Z,100690.22
2022-07-26T05:47:36.782Z,100704.38
2022-07-26T05:50:05.083Z,100713.56
2022-07-26T05:52:32.032Z,100714.78
2022-07-26T05:54:59.214Z,100713.13
2022-07-26T05:57:26.033Z,100699.38
2022-07-26T05:59:52.811Z,100696.56
2022-07-26T06:02:19.713Z,100707.06
2022-07-26T06:04:47.545Z,100696.94
2022-07-26T06:07:15.117Z,100707.34
2022-07-26T06:09:42.214Z,100706.31
2022-07-26T06:12:09.097Z,100703.34
2022-07-26T06:14:35.928Z,100708.81
2022-07-26T06:17:04.554Z,100710.16
2022-07-26T06:19:31.887Z,100715.78
2022-07-26T06:21:59.110Z,100716.63
2022-07-26T06:24:26.031Z,100704.97
2022-07-26T06:26:57.116Z,100714.44
2022-07-26T06:29:32.536Z,100709.91
2022-07-26T06:31:59.691Z,100711.22
2022-07-26T06:34:26.675Z,100720.41
2022-07-26T06:36:53.403Z,100723.31
2022-07-26T06:39:20.183Z,100727.22
2022-07-26T06:41:46.917Z,100722.91
2022-07-26T06:44:13.735Z,100716.06
2022-07-26T06:46:40.461Z,100714.88
2022-07-26T06:49:07.313Z,100716.88
2022-07-26T06:51:34.357Z,100719.81
2022-07-26T06:54:01.403Z,100713.94
2022-07-26T06:56:28.094Z,100722.28
2022-07-26T06:58:56.510Z,100718.41
2022-07-26T07:01:58.150Z,100727.41
2022-07-26T07:04:10.828Z,100719.63
2022-07-26T07:06:38.004Z,100721.34
2022-07-26T07:09:05.011Z,100730.31
2022-07-26T07:11:35.195Z,100735.59
2022-07-26T07:14:03.414Z,100727.31
2022-07-26T07:16:30.414Z,100737.44
2022-07-26T07:18:57.375Z,100741.94
2022-07-26T07:21:24.087Z,100749.94
2022-07-26T07:23:50.782Z,100737.22
2022-07-26T07:26:17.668Z,100739.88
2022-07-26T07:28:44.370Z,100738.50
2022-07-26T07:31:11.887Z,100741.78
2022-07-26T07:33:50.387Z,100743.50
2022-07-26T07:36:20.331Z,100741.63
2022-07-26T07:38:47.264Z,100750.13
2022-07-26T07:41:14.203Z,100745.16
2022-07-26T07:43:41.010Z,100750.19
2022-07-26T07:46:07.743Z,100745.28
2022-07-26T07:48:34.544Z,100733.28
2022-07-26T07:51:01.304Z,100749.13
2022-07-26T07:53:28.377Z,100727.59
2022-07-26T07:55:57.832Z,100730.09
2022-07-26T07:58:24.634Z,100724.75
2022-07-26T08:00:54.891Z,100731.94
2022-07-26T08:03:21.838Z,100726.75
2022-07-26T08:05:49.780Z,100732.28
2022-07-26T08:08:18.227Z,100739.66
2022-07-26T08:10:51.784Z,100734.78
2022-07-26T08:13:21.196Z,100735.78
2022-07-26T08:15:52.945Z,100726.13
2022-07-26T08:18:22.227Z,100722.34
2022-07-26T08:20:50.826Z,100719.75
2022-07-26T08:23:17.646Z,100729.16
2022-07-26T08:25:55.579Z,100718.41
2022-07-26T08:28:45.586Z,100712.47
2022-07-26T08:31:11.896Z,100733.78
2022-07-26T08:33:39.346Z,100723.06
2022-07-26T08:36:12.792Z,100730.06
2022-07-26T08:38:39.637Z,100728.81
2022-07-26T08:41:06.598Z,100723.44
2022-07-26T08:43:45.255Z,100738.09
2022-07-26T08:46:24.719Z,100734.78
2022-07-26T08:48:52.533Z,100745.47
2022-07-26T08:51:22.776Z,100739.94
2022-07-26T08:53:51.970Z,100751.72
2022-07-26T08:56:18.733Z,100752.66
2022-07-26T08:58:45.747Z,100754.41
2022-07-26T09:01:13.497Z,100751.00
2022-07-26T09:03:44.600Z,100762.09
2022-07-26T09:06:17.687Z,100763.78
2022-07-26T09:08:50.176Z,100747.22
2022-07-26T09:11:32.074Z,100749.44
2022-07-26T09:14:04.588Z,100754.41
2022-07-26T09:16:36.023Z,100752.75
2022-07-26T09:19:21.494Z,100750.91
2022-07-26T09:21:48.449Z,100764.00
2022-07-26T09:24:48.003Z,100768.56
2022-07-26T09:27:16.842Z,100758.22
2022-07-26T09:29:55.072Z,100756.66
2022-07-26T09:32:24.901Z,100750.03
2022-07-26T09:34:58.796Z,100744.16
2022-07-26T09:37:36.030Z,100752.97
2022-07-26T09:40:06.883Z,100752.28
2022-07-26T09:42:33.655Z,100752.56
2022-07-26T09:45:00.538Z,100753.13
2022-07-26T09:47:38.276Z,100745.00
2022-07-26T09:50:16.564Z,100746.13
2022-07-26T09:53:04.755Z,100756.94
2022-07-26T09:55:41.020Z,100758.94
2022-07-26T09:58:16.229Z,100754.63
2022-07-26T10:00:45.413Z,100752.00
2022-07-26T10:03:12.757Z,100749.09
2022-07-26T10:05:40.292Z,100748.84
2022-07-26T10:08:08.083Z,100767.13
2022-07-26T10:10:49.343Z,100753.19
2022-07-26T10:13:16.614Z,100750.97
2022-07-26T10:15:49.543Z,100762.75
2022-07-26T10:18:34.796Z,100760.41
2022-07-26T10:21:25.466Z,100758.22
2022-07-26T10:23:53.373Z,100759.44
2022-07-26T10:26:32.340Z,100769.50
2022-07-26T10:29:17.358Z,100773.50
2022-07-26T10:31:45.150Z,100770.56
2022-07-26T10:34:31.679Z,100783.44
2022-07-26T10:37:07.765Z,100770.84
2022-07-26T10:39:35.109Z,100773.34
2022-07-26T10:42:10.045Z,100765.41
2022-07-26T10:44:41.415Z,100760.75
2022-07-26T10:49:58.376Z,100769.16
2022-07-26T10:52:31.999Z,100776.69
2022-07-26T10:55:01.661Z,100775.78
2022-07-26T10:57:30.689Z,100765.88
2022-07-26T10:59:59.273Z,100774.97
2022-07-26T11:02:35.975Z,100758.53
2022-07-26T11:05:16.509Z,100774.69
2022-07-26T11:08:08.272Z,100760.72
2022-07-26T11:10:41.364Z,100769.59
2022-07-26T11:13:11.373Z,100759.47
2022-07-26T11:15:40.724Z,100752.47
2022-07-26T11:18:10.185Z,100751.63
2022-07-26T11:20:37.259Z,100760.31
2022-07-26T11:23:04.443Z,100759.28
2022-07-26T11:25:31.260Z,100766.66
2022-07-26T11:28:07.370Z,100771.78
2022-07-26T11:30:35.084Z,100761.19
2022-07-26T11:33:01.963Z,100768.38
2022-07-26T11:35:29.842Z,100771.13
2022-07-26T11:38:07.825Z,100778.63
2022-07-26T11:40:46.552Z,100761.41
2022-07-26T11:43:13.741Z,100763.72
2022-07-26T11:45:40.754Z,100769.66
2022-07-26T11:48:07.627Z,100760.13
2022-07-26T11:50:34.461Z,100756.41
2022-07-26T11:53:01.272Z,100759.47
2022-07-26T11:55:31.385Z,100762.06
2022-07-26T11:58:06.231Z,100750.25
2022-07-26T12:00:33.122Z,100756.16
2022-07-26T12:02:59.870Z,100760.56
2022-07-26T12:05:27.498Z,100780.25
2022-07-26T12:08:00.959Z,100783.06
2022-07-26T12:10:28.446Z,100804.34
2022-07-26T12:13:09.905Z,100815.06
2022-07-26T12:15:50.026Z,100844.00
2022-07-26T12:18:31.196Z,100856.22
2022-07-26T12:21:04.970Z,100866.81
2022-07-26T12:23:48.383Z,100866.22
2022-07-26T12:26:29.208Z,100873.28
2022-07-26T12:28:56.826Z,100891.94
2022-07-26T12:31:32.327Z,100888.97
2022-07-26T12:33:59.589Z,100896.94
2022-07-26T12:36:29.496Z,100890.75
2022-07-26T12:39:01.070Z,100895.38
2022-07-26T12:41:36.324Z,100904.06
2022-07-26T12:44:05.018Z,100894.25
2022-07-26T12:46:33.898Z,100895.25
2022-07-26T12:49:01.180Z,100893.78
2022-07-26T12:51:28.123Z,100902.72
2022-07-26T12:53:55.058Z,100898.38
2022-07-26T12:56:21.772Z,100900.75
2022-07-26T12:58:48.455Z,100902.09
2022-07-26T13:01:15.301Z,100899.28
2022-07-26T13:03:42.149Z,100900.88
2022-07-26T13:06:08.919Z,100896.88
2022-07-26T13:08:35.653Z,100893.53
2022-07-26T13:11:02.371Z,100903.88
2022-07-26T13:13:29.061Z,100909.03
2022-07-26T13:15:55.726Z,100902.56
2022-07-26T13:18:22.397Z,100901.94
2022-07-26T13:20:49.063Z,100910.09
2022-07-26T13:23:21.810Z,100909.25
2022-07-26T13:25:49.858Z,100914.75
2022-07-26T13:28:17.416Z,100914.56
2022-07-26T13:30:45.101Z,100916.84
2022-07-26T13:33:12.530Z,100919.72
2022-07-26T13:35:41.358Z,100913.91
2022-07-26T13:38:08.667Z,100909.94
2022-07-26T13:40:36.108Z,100903.75
2022-07-26T13:43:03.624Z,100899.94
2022-07-26T13:45:30.288Z,100906.56
2022-07-26T13:47:59.541Z,100901.19
2022-07-26T13:50:28.144Z,100898.53
2022-07-26T13:52:56.417Z,100899.63
2022-07-26T13:55:24.022Z,100899.13
2022-07-26T13:57:57.297Z,100901.78
2022-07-26T14:00:26.993Z,100902.66
2022-07-26T14:02:54.798Z,100913.75
2022-07-26T14:05:21.748Z,100897.72
2022-07-26T14:07:48.435Z,100903.03
2022-07-26T14:10:15.243Z,100901.41
2022-07-26T14:12:42.147Z,100905.72
2022-07-26T14:15:15.486Z,100904.06
2022-07-26T14:17:47.371Z,100911.38
2022-07-26T14:20:16.974Z,100916.50
2022-07-26T14:22:44.464Z,100906.84
2022-07-26T14:25:11.173Z,100911.41
2022-07-26T14:27:38.055Z,100914.06
2022-07-26T14:30:06.807Z,100911.03
2022-07-26T14:32:34.208Z,100917.16
2022-07-26T14:35:00.897Z,100915.13
2022-07-26T14:37:44.014Z,100917.72
2022-07-26T14:40:14.217Z,100924.09
2022-07-26T14:42:41.126Z,100918.53
2022-07-26T14:45:09.753Z,100925.91
2022-07-26T14:47:37.006Z,100918.72
2022-07-26T14:50:07.091Z,100927.06
2022-07-26T14:52:37.578Z,100933.22
2022-07-26T14:55:05.201Z,100928.06
2022-07-26T14:57:31.969Z,100939.13
2022-07-26T14:59:59.345Z,100933.91
2022-07-26T15:02:26.327Z,100928.06
2022-07-26T15:04:53.181Z,100935.38
2022-07-26T15:07:19.966Z,100941.22
2022-07-26T15:09:46.642Z,100928.50
2022-07-26T15:12:13.396Z,100933.97
2022-07-26T15:14:41.207Z,100935.84
2022-07-26T15:17:07.892Z,100928.81
2022-07-26T15:19:35.261Z,100930.59
2022-07-26T15:22:02.183Z,100932.78
2022-07-26T15:24:29.125Z,100936.91
2022-07-26T15:26:56.205Z,100929.88
2022-07-26T15:29:22.982Z,100929.31
2022-07-26T15:31:50.554Z,100928.94
2022-07-26T15:34:17.527Z,100927.06
2022-07-26T15:36:44.315Z,100930.38
2022-07-26T15:39:18.590Z,100934.53
2022-07-26T15:41:47.341Z,100932.63
2022-07-26T15:44:16.828Z,100928.16
2022-07-26T15:46:45.852Z,100932.47
2022-07-26T15:49:16.047Z,100939.41
2022-07-26T15:51:43.448Z,100931.00
2022-07-26T15:54:12.636Z,100937.81
2022-07-26T15:56:39.822Z,100935.59
2022-07-26T15:59:09.554Z,100939.13
2022-07-26T16:01:36.747Z,100926.81
2022-07-26T16:04:05.415Z,100936.56
2022-07-26T16:06:33.492Z,100928.25
2022-07-26T16:09:16.734Z,100926.59
2022-07-26T16:11:44.961Z,100925.78
2022-07-26T16:14:11.696Z,100925.94
2022-07-26T16:16:38.449Z,100932.56
2022-07-26T16:19:05.179Z,100928.13
2022-07-26T16:21:32.265Z,100928.03
2022-07-26T16:24:02.969Z,100932.25
2022-07-26T16:26:32.914Z,100929.03
2022-07-26T16:29:00.590Z,100930.63
2022-07-26T16:31:27.390Z,100918.56
2022-07-26T16:33:54.146Z,100930.47
2022-07-26T16:36:20.808Z,100929.00
2022-07-26T16:38:47.470Z,100927.81
2022-07-26T16:41:14.169Z,100929.28
2022-07-26T16:43:40.880Z,100936.31
2022-07-26T16:46:07.605Z,100937.25
2022-07-26T16:48:34.359Z,100929.50
2022-07-26T16:51:01.106Z,100936.22
2022-07-26T16:53:28.158Z,100937.94
2022-07-26T16:55:54.839Z,100942.19
2022-07-26T16:58:22.799Z,100938.06
2022-07-26T17:00:50.180Z,100932.66
2022-07-26T17:03:17.491Z,100932.66
2022-07-26T17:05:45.931Z,100934.19
2022-07-26T17:08:12.586Z,100927.53
2022-07-26T17:10:39.291Z,100928.09
2022-07-26T17:13:06.095Z,100934.31
2022-07-26T17:15:33.073Z,100939.03
2022-07-26T17:17:59.827Z,100937.06
2022-07-26T17:20:26.609Z,100939.97
2022-07-26T17:22:53.697Z,100935.84
2022-07-26T17:25:20.594Z,100938.31
2022-07-26T17:27:47.596Z,100941.91
2022-07-26T17:30:14.634Z,100941.97
2022-07-26T17:32:41.983Z,100943.56
2022-07-26T17:35:08.741Z,100946.53
2022-07-26T17:37:35.400Z,100946.47
2022-07-26T17:40:05.055Z,100956.50
2022-07-26T17:42:34.932Z,100954.00
2022-07-26T17:45:01.680Z,100948.75
2022-07-26T17:47:30.576Z,100948.25
2022-07-26T17:50:37.685Z,100955.13
2022-07-26T17:52:50.148Z,100950.84
2022-07-26T17:55:18.557Z,100944.97
2022-07-26T17:57:46.023Z,100954.31
2022-07-26T18:00:13.371Z,100961.59
2022-07-26T18:02:39.974Z,100952.03
2022-07-26T18:05:06.946Z,100950.09
2022-07-26T18:07:33.733Z,100960.88
2022-07-26T18:10:00.431Z,100966.91
2022-07-26T18:12:27.086Z,100957.88
2022-07-26T18:14:53.790Z,100962.41
2022-07-26T18:17:20.452Z,100963.41
2022-07-26T18:19:47.123Z,100969.22
2022-07-26T18:22:13.775Z,100982.41
2022-07-26T18:24:40.809Z,100976.38
2022-07-26T18:27:07.576Z,100976.00
2022-07-26T18:29:34.301Z,100975.00
2022-07-26T18:32:02.171Z,100972.34
2022-07-26T18:34:29.065Z,100972.34
2022-07-26T18:36:55.797Z,100981.00
2022-07-26T18:39:22.507Z,100977.13
2022-07-26T18:41:49.124Z,100976.84
2022-07-26T18:44:15.868Z,100979.34
2022-07-26T18:46:42.640Z,100973.47
2022-07-26T18:49:09.764Z,100984.13
2022-07-26T18:51:42.917Z,100983.84
2022-07-26T18:54:10.001Z,100981.56
2022-07-26T18:56:36.705Z,100994.44
2022-07-26T18:59:03.860Z,100995.44
2022-07-26T19:01:30.640Z,100991.22
2022-07-26T19:03:57.498Z,101003.38
2022-07-26T19:06:24.747Z,101002.84
2022-07-26T19:08:51.570Z,101008.88
2022-07-26T19:11:18.255Z,101000.22
2022-07-26T19:13:44.866Z,101000.78
2022-07-26T19:16:11.684Z,100998.38
2022-07-26T19:18:38.521Z,100998.19
2022-07-26T19:21:05.214Z,101007.50
2022-07-26T19:23:32.009Z,101016.78
2022-07-26T19:25:58.812Z,101012.66
2022-07-26T19:28:25.620Z,101013.97
2022-07-26T19:30:52.319Z,101016.13
2022-07-26T19:33:18.966Z,101013.66
2022-07-26T19:35:45.613Z,101020.94
2022-07-26T19:38:12.361Z,101022.06
2022-07-26T19:40:39.081Z,101030.84
2022-07-26T19:43:05.792Z,101033.53
2022-07-26T19:45:32.441Z,101042.16
2022-07-26T19:47:59.482Z,101036.31
2022-07-26T19:50:26.184Z,101036.50
2022-07-26T19:52:52.906Z,101042.19
2022-07-26T19:55:19.701Z,101048.03
2022-07-26T19:57:46.486Z,101043.56
2022-07-26T20:00:13.729Z,101052.91
2022-07-26T20:02:41.362Z,101056.81
2022-07-26T20:05:11.651Z,101053.06
2022-07-26T20:07:38.613Z,101057.94
2022-07-26T20:10:06.506Z,101060.72
2022-07-26T20:12:37.377Z,101058.88
2022-07-26T20:15:04.712Z,101053.03
2022-07-26T20:17:35.493Z,101059.44
2022-07-26T20:20:05.465Z,101060.16
2022-07-26T20:22:32.188Z,101059.31
2022-07-26T20:24:58.853Z,101060.72
2022-07-26T20:27:25.641Z,101061.53
2022-07-26T20:29:55.111Z,101072.94
2022-07-26T20:32:24.249Z,101071.47
2022-07-26T20:34:50.870Z,101071.59
2022-07-26T20:37:17.568Z,101069.63
2022-07-26T20:39:44.353Z,101075.22
2022-07-26T20:42:13.078Z,101080.22
2022-07-26T20:44:48.345Z,101078.97
2022-07-26T20:47:15.491Z,101080.66
2022-07-26T20:49:42.137Z,101078.72
2022-07-26T20:52:08.818Z,101081.06
2022-07-26T20:54:35.577Z,101084.00
2022-07-26T20:57:04.155Z,101081.50
2022-07-26T20:59:32.453Z,101092.50
2022-07-26T21:01:59.352Z,101091.94
2022-07-26T21:04:26.285Z,101095.72
2022-07-26T21:06:53.086Z,101098.50
2022-07-26T21:09:19.935Z,101094.72
2022-07-26T21:11:46.832Z,101092.34
2022-07-26T21:14:13.499Z,101102.41
2022-07-26T21:16:40.235Z,101102.41
2022-07-26T21:19:07.098Z,101097.53
2022-07-26T21:21:34.756Z,101106.56
2022-07-26T21:24:01.417Z,101112.44
2022-07-26T21:26:28.091Z,101119.28
2022-07-26T21:28:54.917Z,101124.97
2022-07-26T21:31:21.761Z,101128.63
2022-07-26T21:33:48.447Z,101128.59
2022-07-26T21:36:17.612Z,101137.22
2022-07-26T21:38:44.473Z,101124.41
2022-07-26T21:41:13.307Z,101133.63
2022-07-26T21:43:40.552Z,101145.59
2022-07-26T21:46:12.214Z,101131.41
2022-07-26T21:48:40.103Z,101142.69
2022-07-26T21:51:06.869Z,101137.81
2022-07-26T21:53:33.513Z,101143.25
2022-07-26T21:56:00.168Z,101150.91
2022-07-26T21:58:28.120Z,101154.94
2022-07-26T22:01:03.493Z,101162.34
2022-07-26T22:03:36.525Z,101162.63
2022-07-26T22:06:06.304Z,101164.44
2022-07-26T22:08:33.525Z,101162.88
2022-07-26T22:11:00.726Z,101155.19
2022-07-26T22:13:27.596Z,101171.34
2022-07-26T22:15:54.280Z,101169.69
2022-07-26T22:18:21.134Z,101166.78
2022-07-26T22:20:49.217Z,101172.78
2022-07-26T22:23:17.880Z,101173.59
2022-07-26T22:25:44.921Z,101176.94
2022-07-26T22:28:18.221Z,101180.72
2022-07-26T22:30:45.567Z,101179.72
2022-07-26T22:33:12.211Z,101173.88
2022-07-26T22:35:38.936Z,101169.81
2022-07-26T22:38:09.043Z,101176.66
2022-07-26T22:40:37.305Z,101174.56
2022-07-26T22:43:05.055Z,101181.13
2022-07-26T22:45:32.029Z,101178.47
2022-07-26T22:47:59.129Z,101195.34
2022-07-26T22:50:25.780Z,101194.06
2022-07-26T22:52:52.746Z,101199.34
2022-07-26T22:55:19.801Z,101197.94
2022-07-26T22:57:46.851Z,101197.00
2022-07-26T23:00:16.692Z,101200.84
2022-07-26T23:02:44.083Z,101198.59
2022-07-26T23:05:11.675Z,101204.88
2022-07-26T23:07:39.368Z,101213.38
2022-07-26T23:10:09.242Z,101213.66
2022-07-26T23:12:36.605Z,101207.28
2022-07-26T23:15:05.596Z,101217.69
2022-07-26T23:17:32.500Z,101217.81
2022-07-26T23:19:59.274Z,101214.53
2022-07-26T23:22:25.944Z,101211.31
2022-07-26T23:24:52.666Z,101214.16
2022-07-26T23:27:20.313Z,101207.28
2022-07-26T23:29:49.023Z,101210.41
2022-07-26T23:32:15.892Z,101212.41
2022-07-26T23:34:43.035Z,101205.94
2022-07-26T23:37:09.952Z,101197.94
2022-07-26T23:39:37.054Z,101197.00
2022-07-26T23:42:03.897Z,101205.94
2022-07-26T23:44:31.361Z,101208.16
2022-07-26T23:46:58.933Z,101210.78
2022-07-26T23:49:26.118Z,101209.88
2022-07-26T23:51:53.219Z,101210.25
2022-07-26T23:54:20.074Z,101206.44
2022-07-26T23:56:47.541Z,101200.41
2022-07-26T23:59:15.123Z,101192.38
